createdAt,value
2023-03-31T00:00:29.319Z,9.36
2023-03-31T00:02:59.826Z,9.36
2023-03-31T00:05:27.997Z,9.34
2023-03-31T00:08:02.075Z,9.36
2023-03-31T00:10:35.729Z,9.34
2023-03-31T00:13:04.812Z,9.35
2023-03-31T00:15:33.894Z,9.33
2023-03-31T00:18:02.661Z,9.35
2023-03-31T00:20:33.899Z,9.36
2023-03-31T00:23:02.513Z,9.36
2023-03-31T00:25:30.156Z,9.36
2023-03-31T00:27:58.389Z,9.36
2023-03-31T00:30:26.332Z,9.35
2023-03-31T00:32:56.142Z,9.35
2023-03-31T00:35:23.534Z,9.38
2023-03-31T00:37:52.276Z,9.36
2023-03-31T00:40:20.596Z,9.35
2023-03-31T00:42:48.576Z,9.32
2023-03-31T00:45:17.053Z,9.32
2023-03-31T00:47:47.643Z,9.34
2023-03-31T00:50:18.789Z,9.33
2023-03-31T00:52:48.721Z,9.29
2023-03-31T00:55:19.767Z,9.29
2023-03-31T00:57:49.506Z,9.27
2023-03-31T01:00:18.589Z,9.23
2023-03-31T01:02:53.866Z,9.23
2023-03-31T01:05:23.498Z,9.19
2023-03-31T01:07:52.117Z,9.22
2023-03-31T01:10:20.714Z,9.23
2023-03-31T01:12:51.759Z,9.23
2023-03-31T01:15:19.756Z,9.22
2023-03-31T01:17:50.227Z,9.25
2023-03-31T01:20:42.606Z,9.27
2023-03-31T01:23:36.874Z,9.27
2023-03-31T01:26:38.935Z,9.29
2023-03-31T01:29:28.977Z,9.32
2023-03-31T01:32:13.478Z,9.30
2023-03-31T01:34:55.837Z,9.29
2023-03-31T01:38:03.672Z,9.30
2023-03-31T01:40:53.190Z,9.31
2023-03-31T01:43:37.612Z,9.31
2023-03-31T01:46:28.810Z,9.30
2023-03-31T01:49:19.381Z,9.31
2023-03-31T01:52:00.048Z,9.32
2023-03-31T01:54:39.372Z,9.30
2023-03-31T01:57:12.329Z,9.33
2023-03-31T02:00:11.482Z,9.33
2023-03-31T02:02:40.910Z,9.32
2023-03-31T02:05:12.171Z,9.33
2023-03-31T02:07:52.891Z,9.33
2023-03-31T02:10:21.380Z,9.32
2023-03-31T02:12:49.497Z,9.29
2023-03-31T02:15:24.388Z,9.24
2023-03-31T02:17:54.889Z,9.21
2023-03-31T02:20:27.614Z,9.21
2023-03-31T02:22:56.239Z,9.18
2023-03-31T02:25:29.074Z,9.18
2023-03-31T02:28:00.194Z,9.18
2023-03-31T02:30:33.170Z,9.17
2023-03-31T02:33:00.299Z,9.18
2023-03-31T02:35:27.398Z,9.17
2023-03-31T02:37:54.437Z,9.18
2023-03-31T02:40:22.633Z,9.22
2023-03-31T02:42:49.923Z,9.24
2023-03-31T02:45:49.734Z,9.26
2023-03-31T02:48:17.354Z,9.29
2023-03-31T02:51:01.852Z,9.29
2023-03-31T02:53:47.401Z,9.33
2023-03-31T02:56:36.947Z,9.37
2023-03-31T02:59:30.674Z,9.36
2023-03-31T03:02:22.178Z,9.39
2023-03-31T03:05:08.104Z,9.42
2023-03-31T03:07:38.324Z,9.42
2023-03-31T03:10:20.683Z,9.46
2023-03-31T03:12:58.813Z,9.49
2023-03-31T03:15:47.808Z,9.48
2023-03-31T03:18:15.373Z,9.49
2023-03-31T03:20:43.333Z,9.51
2023-03-31T03:23:10.721Z,9.55
2023-03-31T03:25:38.906Z,9.57
2023-03-31T03:28:07.159Z,9.55
2023-03-31T03:30:34.188Z,9.60
2023-03-31T03:33:01.271Z,9.61
2023-03-31T03:35:28.389Z,9.62
2023-03-31T03:37:55.528Z,9.63
2023-03-31T03:40:22.579Z,9.64
2023-03-31T03:42:49.647Z,9.59
2023-03-31T03:45:16.747Z,9.55
2023-03-31T03:47:43.864Z,9.58
2023-03-31T03:50:13.451Z,9.57
2023-03-31T03:52:41.760Z,9.55
2023-03-31T03:55:09.114Z,9.57
2023-03-31T03:57:36.550Z,9.60
2023-03-31T04:00:10.159Z,9.58
2023-03-31T04:02:37.286Z,9.61
2023-03-31T04:05:05.136Z,9.59
2023-03-31T04:07:32.451Z,9.59
2023-03-31T04:09:59.557Z,9.61
2023-03-31T04:12:26.590Z,9.61
2023-03-31T04:14:53.992Z,9.58
2023-03-31T04:17:33.060Z,9.59
2023-03-31T04:20:07.649Z,9.61
2023-03-31T04:22:35.537Z,9.61
2023-03-31T04:25:04.567Z,9.58
2023-03-31T04:27:33.743Z,9.55
2023-03-31T04:30:00.846Z,9.59
2023-03-31T04:32:28.449Z,9.61
2023-03-31T04:35:03.358Z,9.60
2023-03-31T04:37:34.730Z,9.59
2023-03-31T04:40:11.190Z,9.58
2023-03-31T04:42:38.388Z,9.52
2023-03-31T04:45:05.871Z,9.44
2023-03-31T04:47:34.693Z,9.38
2023-03-31T04:50:01.867Z,9.32
2023-03-31T04:52:29.086Z,9.24
2023-03-31T04:54:56.121Z,9.25
2023-03-31T04:57:23.205Z,9.27
2023-03-31T04:59:50.300Z,9.25
2023-03-31T05:02:25.236Z,9.28
2023-03-31T05:04:54.285Z,9.27
2023-03-31T05:07:21.344Z,9.26
2023-03-31T05:09:48.566Z,9.24
2023-03-31T05:12:15.990Z,9.22
2023-03-31T05:14:43.032Z,9.22
2023-03-31T05:17:10.425Z,9.22
2023-03-31T05:19:37.603Z,9.23
2023-03-31T05:22:04.644Z,9.22
2023-03-31T05:24:31.965Z,9.19
2023-03-31T05:26:59.055Z,9.17
2023-03-31T05:29:26.763Z,9.14
2023-03-31T05:31:54.513Z,9.14
2023-03-31T05:34:21.555Z,9.14
2023-03-31T05:36:50.545Z,9.12
2023-03-31T05:39:19.286Z,9.13
2023-03-31T05:41:46.318Z,9.14
2023-03-31T05:44:13.880Z,9.15
2023-03-31T05:46:42.398Z,9.18
2023-03-31T05:49:11.291Z,9.22
2023-03-31T05:51:38.401Z,9.24
2023-03-31T05:54:06.298Z,9.27
2023-03-31T05:56:33.712Z,9.32
2023-03-31T05:59:01.524Z,9.38
2023-03-31T06:01:29.968Z,9.45
2023-03-31T06:03:57.478Z,9.52
2023-03-31T06:06:25.352Z,9.57
2023-03-31T06:08:52.424Z,9.64
2023-03-31T06:11:21.726Z,9.71
2023-03-31T06:13:49.212Z,9.76
2023-03-31T06:16:19.544Z,9.81
2023-03-31T06:18:46.759Z,9.87
2023-03-31T06:21:16.905Z,9.88
2023-03-31T06:23:45.249Z,9.94
2023-03-31T06:26:14.802Z,9.95
2023-03-31T06:28:42.110Z,9.97
2023-03-31T06:31:14.870Z,10.03
2023-03-31T06:33:43.096Z,10.05
2023-03-31T06:36:11.163Z,10.07
2023-03-31T06:38:38.488Z,10.13
2023-03-31T06:41:06.511Z,10.18
2023-03-31T06:43:33.787Z,10.23
2023-03-31T06:46:01.376Z,10.28
2023-03-31T06:48:28.780Z,10.37
2023-03-31T06:50:59.170Z,10.48
2023-03-31T06:53:26.490Z,10.55
2023-03-31T06:55:53.574Z,10.65
2023-03-31T06:58:20.850Z,10.77
2023-03-31T07:00:48.054Z,10.83
2023-03-31T07:03:18.767Z,10.92
2023-03-31T07:05:50.258Z,10.95
2023-03-31T07:08:17.740Z,10.97
2023-03-31T07:10:48.564Z,11.03
2023-03-31T07:13:18.630Z,11.10
2023-03-31T07:15:48.199Z,11.15
2023-03-31T07:18:16.574Z,11.22
2023-03-31T07:20:43.957Z,11.29
2023-03-31T07:23:11.378Z,11.28
2023-03-31T07:25:38.466Z,11.37
2023-03-31T07:28:06.497Z,11.44
2023-03-31T07:30:33.604Z,11.49
2023-03-31T07:33:01.904Z,11.51
2023-03-31T07:35:31.440Z,11.53
2023-03-31T07:37:59.031Z,11.47
2023-03-31T07:40:28.235Z,11.41
2023-03-31T07:42:55.635Z,11.33
2023-03-31T07:45:25.464Z,11.26
2023-03-31T07:47:52.769Z,11.11
2023-03-31T07:50:21.104Z,11.07
2023-03-31T07:52:48.309Z,10.99
2023-03-31T07:55:16.625Z,10.96
2023-03-31T07:57:46.031Z,10.91
2023-03-31T08:00:14.772Z,10.82
2023-03-31T08:02:45.384Z,10.68
2023-03-31T08:05:14.432Z,10.64
2023-03-31T08:07:43.231Z,10.55
2023-03-31T08:10:13.739Z,10.41
2023-03-31T08:12:40.934Z,10.36
2023-03-31T08:15:08.548Z,10.32
2023-03-31T08:17:36.148Z,10.30
2023-03-31T08:20:08.014Z,10.29
2023-03-31T08:22:39.167Z,10.29
2023-03-31T08:25:08.044Z,10.31
2023-03-31T08:27:36.488Z,10.34
2023-03-31T08:30:05.162Z,10.35
2023-03-31T08:32:32.971Z,10.33
2023-03-31T08:35:00.283Z,10.32
2023-03-31T08:37:31.505Z,10.33
2023-03-31T08:39:58.685Z,10.30
2023-03-31T08:42:36.979Z,10.28
2023-03-31T08:45:07.231Z,10.33
2023-03-31T08:47:36.551Z,10.33
2023-03-31T08:50:10.271Z,10.33
2023-03-31T08:52:47.979Z,10.30
2023-03-31T08:55:22.624Z,10.29
2023-03-31T08:57:58.450Z,10.29
2023-03-31T09:00:25.526Z,10.30
2023-03-31T09:02:53.099Z,10.34
2023-03-31T09:05:27.759Z,10.37
2023-03-31T09:08:02.494Z,10.38
2023-03-31T09:10:39.942Z,10.43
2023-03-31T09:13:26.470Z,10.44
2023-03-31T09:16:00.310Z,10.37
2023-03-31T09:18:35.843Z,10.36
2023-03-31T09:21:27.723Z,10.33
2023-03-31T09:24:12.605Z,10.29
2023-03-31T09:26:46.372Z,10.26
2023-03-31T09:29:20.002Z,10.14
2023-03-31T09:31:47.299Z,10.14
2023-03-31T09:34:17.793Z,10.14
2023-03-31T09:36:44.932Z,10.10
2023-03-31T09:39:13.826Z,10.09
2023-03-31T09:41:44.829Z,10.01
2023-03-31T09:44:37.271Z,9.94
2023-03-31T09:47:10.922Z,9.85
2023-03-31T09:49:39.101Z,9.87
2023-03-31T09:52:14.941Z,9.86
2023-03-31T09:54:48.351Z,9.89
2023-03-31T09:57:35.112Z,9.93
2023-03-31T10:00:08.334Z,9.90
2023-03-31T10:02:37.881Z,9.90
2023-03-31T10:05:06.793Z,9.90
2023-03-31T10:07:34.415Z,9.92
2023-03-31T10:10:02.237Z,9.98
2023-03-31T10:12:30.019Z,9.98
2023-03-31T10:15:26.363Z,9.95
2023-03-31T10:17:55.297Z,9.94
2023-03-31T10:20:33.464Z,9.92
2023-03-31T10:23:05.682Z,9.87
2023-03-31T10:25:33.596Z,9.84
2023-03-31T10:28:02.145Z,9.80
2023-03-31T10:30:36.420Z,9.70
2023-03-31T10:33:22.191Z,9.60
2023-03-31T10:35:54.897Z,9.53
2023-03-31T10:38:27.319Z,9.49
2023-03-31T10:40:59.061Z,9.48
2023-03-31T10:43:43.367Z,9.41
2023-03-31T10:46:12.377Z,9.37
2023-03-31T10:48:41.525Z,9.33
2023-03-31T10:51:21.496Z,9.24
2023-03-31T10:53:50.814Z,9.18
2023-03-31T10:56:35.572Z,9.09
2023-03-31T10:59:30.849Z,9.04
2023-03-31T11:02:05.400Z,9.01
2023-03-31T11:04:46.493Z,9.01
2023-03-31T11:07:29.207Z,8.97
2023-03-31T11:10:14.960Z,8.91
2023-03-31T11:13:19.467Z,8.92
2023-03-31T11:15:49.175Z,8.83
2023-03-31T11:18:37.624Z,8.78
2023-03-31T11:21:26.560Z,8.73
2023-03-31T11:24:14.004Z,8.67
2023-03-31T11:26:53.110Z,8.67
2023-03-31T11:29:57.829Z,8.67
2023-03-31T11:32:31.586Z,8.68
2023-03-31T11:35:30.008Z,8.69
2023-03-31T11:38:16.004Z,8.70
2023-03-31T11:40:46.159Z,8.72
2023-03-31T11:43:24.954Z,8.74
2023-03-31T11:46:06.022Z,8.72
2023-03-31T11:48:36.288Z,8.71
2023-03-31T11:51:05.305Z,8.71
2023-03-31T11:53:34.945Z,8.75
2023-03-31T11:56:02.615Z,8.79
2023-03-31T11:58:38.372Z,8.85
2023-03-31T12:01:20.166Z,8.88
2023-03-31T12:03:58.997Z,8.89
2023-03-31T12:06:30.784Z,8.92
2023-03-31T12:09:05.919Z,8.96
2023-03-31T12:11:48.803Z,9.02
2023-03-31T12:14:35.223Z,9.04
2023-03-31T12:17:09.159Z,9.08
2023-03-31T12:19:52.541Z,9.09
2023-03-31T12:22:26.921Z,9.12
2023-03-31T12:24:54.416Z,9.15
2023-03-31T12:27:32.758Z,9.20
2023-03-31T12:30:29.508Z,9.29
2023-03-31T12:33:17.900Z,9.43
2023-03-31T12:36:03.285Z,9.53
2023-03-31T12:39:06.006Z,9.60
2023-03-31T12:41:42.169Z,9.67
2023-03-31T12:44:31.574Z,9.76
2023-03-31T12:47:33.681Z,9.83
2023-03-31T12:50:14.731Z,9.93
2023-03-31T12:53:05.727Z,10.01
2023-03-31T12:55:51.857Z,10.11
2023-03-31T12:58:25.263Z,10.21
2023-03-31T13:01:11.967Z,10.35
2023-03-31T13:04:11.241Z,10.42
2023-03-31T13:06:38.158Z,10.48
2023-03-31T13:09:11.975Z,10.47
2023-03-31T13:11:41.257Z,10.46
2023-03-31T13:14:21.084Z,10.43
2023-03-31T13:16:49.530Z,10.42
2023-03-31T13:19:49.723Z,10.43
2023-03-31T13:22:37.208Z,10.50
2023-03-31T13:25:32.310Z,10.65
2023-03-31T13:28:11.239Z,10.78
2023-03-31T13:30:44.047Z,10.95
2023-03-31T13:33:13.186Z,11.02
2023-03-31T13:35:42.813Z,11.07
2023-03-31T13:38:20.283Z,11.16
2023-03-31T13:40:56.016Z,11.23
2023-03-31T13:43:33.373Z,11.32
2023-03-31T13:46:25.354Z,11.41
2023-03-31T13:48:57.953Z,11.52
2023-03-31T13:51:36.668Z,11.63
2023-03-31T13:54:19.070Z,11.77
2023-03-31T13:57:19.733Z,11.94
2023-03-31T14:00:11.623Z,11.92
2023-03-31T14:03:05.880Z,11.96
2023-03-31T14:06:02.738Z,12.10
2023-03-31T14:08:39.101Z,12.18
2023-03-31T14:11:16.378Z,12.24
2023-03-31T14:13:43.507Z,12.27
2023-03-31T14:16:11.298Z,12.33
2023-03-31T14:18:46.231Z,12.40
2023-03-31T14:21:46.998Z,12.42
2023-03-31T14:24:40.992Z,12.44
2023-03-31T14:27:25.662Z,12.34
2023-03-31T14:30:01.194Z,12.27
2023-03-31T14:32:40.462Z,12.22
2023-03-31T14:35:26.581Z,12.17
2023-03-31T14:37:54.739Z,12.08
2023-03-31T14:40:22.250Z,12.01
2023-03-31T14:42:52.258Z,11.95
2023-03-31T14:45:25.226Z,11.90
2023-03-31T14:48:17.450Z,11.86
2023-03-31T14:50:46.376Z,11.85
2023-03-31T14:53:15.833Z,11.87
2023-03-31T14:58:24.253Z,11.92
2023-03-31T15:00:52.363Z,12.05
2023-03-31T15:03:19.753Z,12.16
2023-03-31T15:05:50.372Z,12.12
2023-03-31T15:08:20.715Z,12.06
2023-03-31T15:10:58.932Z,11.93
2023-03-31T15:13:35.886Z,11.85
2023-03-31T15:16:27.195Z,11.77
2023-03-31T15:18:54.752Z,11.73
2023-03-31T15:21:24.233Z,11.66
2023-03-31T15:23:53.094Z,11.59
2023-03-31T15:26:28.028Z,11.45
2023-03-31T15:29:07.578Z,11.36
2023-03-31T15:31:35.382Z,11.45
2023-03-31T15:34:14.018Z,11.65
2023-03-31T15:36:41.314Z,11.72
2023-03-31T15:39:08.689Z,11.76
2023-03-31T15:41:37.164Z,11.72
2023-03-31T15:44:29.766Z,11.59
2023-03-31T15:47:02.025Z,11.51
2023-03-31T15:49:29.520Z,11.45
2023-03-31T15:51:57.464Z,11.44
2023-03-31T15:54:36.903Z,11.44
2023-03-31T15:57:05.972Z,11.40
2023-03-31T15:59:57.015Z,11.36
2023-03-31T16:02:27.429Z,11.30
2023-03-31T16:04:57.249Z,11.26
2023-03-31T16:07:27.287Z,11.19
2023-03-31T16:10:03.072Z,11.15
2023-03-31T16:12:36.951Z,11.12
2023-03-31T16:15:16.706Z,11.11
2023-03-31T16:17:54.552Z,11.11
2023-03-31T16:20:24.744Z,11.10
2023-03-31T16:22:54.260Z,11.12
2023-03-31T16:25:24.382Z,11.15
2023-03-31T16:27:55.513Z,11.19
2023-03-31T16:30:40.338Z,11.21
2023-03-31T16:33:13.340Z,11.21
2023-03-31T16:35:42.805Z,11.20
2023-03-31T16:38:11.767Z,11.21
2023-03-31T16:40:41.043Z,11.19
2023-03-31T16:43:20.038Z,11.21
2023-03-31T16:45:54.242Z,11.23
2023-03-31T16:48:23.253Z,11.20
2023-03-31T16:50:54.177Z,11.18
2023-03-31T16:53:23.836Z,11.16
2023-03-31T16:55:51.203Z,11.15
2023-03-31T16:58:18.773Z,11.15
2023-03-31T17:00:46.300Z,11.13
2023-03-31T17:03:14.908Z,11.13
2023-03-31T17:05:47.653Z,11.12
2023-03-31T17:08:15.510Z,11.08
2023-03-31T17:10:53.085Z,11.05
2023-03-31T17:13:20.559Z,11.01
2023-03-31T17:15:49.466Z,11.00
2023-03-31T17:18:17.445Z,10.92
2023-03-31T17:20:44.600Z,10.90
2023-03-31T17:23:12.125Z,10.79
2023-03-31T17:25:39.371Z,10.73
2023-03-31T17:28:06.516Z,10.68
2023-03-31T17:30:35.656Z,10.55
2023-03-31T17:33:02.839Z,10.51
2023-03-31T17:35:30.690Z,10.46
2023-03-31T17:37:58.595Z,10.43
2023-03-31T17:40:26.896Z,10.35
2023-03-31T17:42:55.182Z,10.33
2023-03-31T17:45:22.229Z,10.28
2023-03-31T17:47:49.353Z,10.25
2023-03-31T17:50:16.516Z,10.22
2023-03-31T17:52:43.649Z,10.19
2023-03-31T17:55:11.508Z,10.16
2023-03-31T17:57:40.659Z,10.08
2023-03-31T18:00:09.802Z,10.03
2023-03-31T18:02:38.253Z,10.02
2023-03-31T18:05:09.124Z,10.03
2023-03-31T18:07:36.765Z,10.00
2023-03-31T18:10:07.198Z,10.00
2023-03-31T18:12:36.382Z,10.00
2023-03-31T18:15:06.726Z,9.99
2023-03-31T18:17:35.440Z,10.01
2023-03-31T18:20:03.924Z,10.02
2023-03-31T18:22:31.229Z,10.00
2023-03-31T18:24:59.284Z,9.99
2023-03-31T18:27:26.599Z,9.98
2023-03-31T18:29:53.657Z,9.98
2023-03-31T18:32:21.153Z,9.97
2023-03-31T18:34:48.633Z,9.94
2023-03-31T18:37:17.067Z,9.92
2023-03-31T18:39:44.158Z,9.86
2023-03-31T18:42:12.202Z,9.88
2023-03-31T18:44:39.858Z,9.87
2023-03-31T18:47:07.165Z,9.85
2023-03-31T18:49:34.337Z,9.81
2023-03-31T18:52:03.981Z,9.80
2023-03-31T18:54:31.131Z,9.79
2023-03-31T18:56:58.308Z,9.72
2023-03-31T18:59:25.498Z,9.72
2023-03-31T19:01:52.766Z,9.70
2023-03-31T19:04:19.852Z,9.66
2023-03-31T19:06:46.985Z,9.63
2023-03-31T19:09:14.138Z,9.54
2023-03-31T19:11:41.685Z,9.49
2023-03-31T19:14:09.103Z,9.42
2023-03-31T19:16:41.871Z,9.36
2023-03-31T19:19:09.103Z,9.36
2023-03-31T19:21:38.256Z,9.34
2023-03-31T19:24:05.926Z,9.33
2023-03-31T19:26:33.009Z,9.29
2023-03-31T19:29:00.289Z,9.29
2023-03-31T19:31:27.948Z,9.30
2023-03-31T19:33:55.069Z,9.30
2023-03-31T19:36:22.177Z,9.24
2023-03-31T19:38:49.264Z,9.25
2023-03-31T19:41:18.181Z,9.20
2023-03-31T19:43:47.565Z,9.18
2023-03-31T19:46:14.850Z,9.15
2023-03-31T19:48:42.105Z,9.16
2023-03-31T19:51:10.754Z,9.14
2023-03-31T19:53:39.394Z,9.13
2023-03-31T19:56:11.852Z,9.09
2023-03-31T19:58:39.418Z,9.06
2023-03-31T20:01:18.404Z,9.02
2023-03-31T20:03:46.113Z,9.00
2023-03-31T20:06:14.515Z,8.98
2023-03-31T20:08:42.532Z,8.97
2023-03-31T20:11:13.228Z,8.98
2023-03-31T20:13:42.073Z,8.95
2023-03-31T20:16:11.877Z,8.91
2023-03-31T20:18:43.600Z,8.91
2023-03-31T20:21:15.617Z,8.92
2023-03-31T20:23:43.833Z,8.92
2023-03-31T20:26:13.539Z,8.90
2023-03-31T20:28:40.991Z,8.85
2023-03-31T20:31:15.653Z,8.80
2023-03-31T20:33:43.267Z,8.79
2023-03-31T20:36:13.434Z,8.75
2023-03-31T20:38:42.819Z,8.69
2023-03-31T20:41:10.906Z,8.66
2023-03-31T20:43:39.324Z,8.64
2023-03-31T20:46:08.513Z,8.64
2023-03-31T20:48:38.009Z,8.65
2023-03-31T20:51:07.169Z,8.68
2023-03-31T20:53:42.309Z,8.69
2023-03-31T20:56:10.823Z,8.70
2023-03-31T20:58:37.922Z,8.68
2023-03-31T21:01:06.553Z,8.67
2023-03-31T21:03:33.897Z,8.64
2023-03-31T21:06:02.910Z,8.64
2023-03-31T21:08:29.987Z,8.63
2023-03-31T21:10:59.380Z,8.63
2023-03-31T21:13:27.327Z,8.61
2023-03-31T21:15:55.848Z,8.60
2023-03-31T21:18:23.291Z,8.57
2023-03-31T21:20:56.078Z,8.51
2023-03-31T21:23:24.256Z,8.48
2023-03-31T21:25:56.784Z,8.40
2023-03-31T21:28:26.228Z,8.40
2023-03-31T21:30:55.952Z,8.36
2023-03-31T21:33:24.312Z,8.40
2023-03-31T21:35:52.006Z,8.39
2023-03-31T21:38:19.886Z,8.37
2023-03-31T21:40:48.286Z,8.31
2023-03-31T21:43:15.861Z,8.27
2023-03-31T21:45:43.161Z,8.27
2023-03-31T21:48:11.691Z,8.27
2023-03-31T21:50:40.041Z,8.23
2023-03-31T21:53:08.317Z,8.21
2023-03-31T21:55:40.321Z,8.17
2023-03-31T21:58:07.423Z,8.08
2023-03-31T22:00:36.024Z,8.03
2023-03-31T22:03:22.405Z,7.98
2023-03-31T22:05:50.154Z,7.91
2023-03-31T22:08:24.595Z,7.87
2023-03-31T22:10:52.211Z,7.87
2023-03-31T22:13:21.079Z,7.84
2023-03-31T22:15:48.645Z,7.85
2023-03-31T22:18:17.188Z,7.86
2023-03-31T22:20:45.284Z,7.87
2023-03-31T22:23:12.796Z,7.85
2023-03-31T22:25:39.859Z,7.83
2023-03-31T22:28:07.667Z,7.83
2023-03-31T22:30:35.441Z,7.81
2023-03-31T22:33:02.630Z,7.78
2023-03-31T22:35:29.736Z,7.78
2023-03-31T22:37:56.905Z,7.76
2023-03-31T22:40:24.053Z,7.78
2023-03-31T22:42:51.088Z,7.77
2023-03-31T22:45:18.715Z,7.78
2023-03-31T22:47:46.045Z,7.79
2023-03-31T22:50:13.137Z,7.80
2023-03-31T22:52:40.585Z,7.81
2023-03-31T22:55:07.726Z,7.83
2023-03-31T22:57:34.940Z,7.85
2023-03-31T23:00:03.488Z,7.84
2023-03-31T23:02:30.709Z,7.84
2023-03-31T23:04:57.757Z,7.85
2023-03-31T23:07:24.814Z,7.86
2023-03-31T23:09:51.874Z,7.83
2023-03-31T23:12:19.234Z,7.85
2023-03-31T23:14:46.654Z,7.85
2023-03-31T23:17:13.654Z,7.84
2023-03-31T23:19:40.706Z,7.83
2023-03-31T23:22:07.781Z,7.86
2023-03-31T23:24:34.855Z,7.83
2023-03-31T23:27:01.973Z,7.81
2023-03-31T23:29:30.712Z,7.79
2023-03-31T23:31:57.854Z,7.78
2023-03-31T23:34:25.408Z,7.77
2023-03-31T23:36:52.845Z,7.76
2023-03-31T23:39:21.387Z,7.73
2023-03-31T23:41:48.707Z,7.73
2023-03-31T23:44:16.490Z,7.76
2023-03-31T23:46:44.359Z,7.78
2023-03-31T23:49:12.026Z,7.79
2023-03-31T23:51:39.147Z,7.77
2023-03-31T23:54:06.221Z,7.76
2023-03-31T23:56:34.330Z,7.74
2023-03-31T23:59:01.538Z,7.76
